sensor_id;sensor_type;location;lat;lon;timestamp;pressure;altitude;pressure_sealevel;temperature;humidity
70758;BME280;59316;52.964;7.102;2023-05-02T00:02:32;63551.88;;;-143.20;100.00
70758;BME280;59316;52.964;7.102;2023-05-02T00:07:53;63551.88;;;-143.20;100.00
70758;BME280;59316;52.964;7.102;2023-05-02T00:13:15;63551.88;;;-143.20;100.00
70758;BME280;59316;52.964;7.102;2023-05-02T00:18:36;63551.88;;;-143.20;100.00
70758;BME280;59316;52.964;7.102;2023-05-02T00:23:58;63551.88;;;-143.20;100.00
70758;BME280;59316;52.964;7.102;2023-05-02T00:29:19;63551.88;;;-143.20;100.00
70758;BME280;59316;52.964;7.102;2023-05-02T00:34:44;63551.88;;;-143.20;100.00
70758;BME280;59316;52.964;7.102;2023-05-02T00:40:06;63551.88;;;-143.20;100.00
70758;BME280;59316;52.964;7.102;2023-05-02T00:45:28;63551.88;;;-143.20;100.00
70758;BME280;59316;52.964;7.102;2023-05-02T00:50:49;63551.88;;;-143.20;100.00
70758;BME280;59316;52.964;7.102;2023-05-02T00:56:11;63551.88;;;-143.20;100.00
70758;BME280;59316;52.964;7.102;2023-05-02T01:08:15;63551.88;;;-143.20;100.00
70758;BME280;59316;52.964;7.102;2023-05-02T01:13:34;63551.88;;;-143.20;100.00
70758;BME280;59316;52.964;7.102;2023-05-02T01:18:58;63551.88;;;-143.20;100.00
70758;BME280;59316;52.964;7.102;2023-05-02T01:24:27;63551.88;;;-143.20;100.00
70758;BME280;59316;52.964;7.102;2023-05-02T01:29:52;63551.88;;;-143.20;100.00
70758;BME280;59316;52.964;7.102;2023-05-02T01:35:16;63551.88;;;-143.20;100.00
70758;BME280;59316;52.964;7.102;2023-05-02T01:40:38;63551.88;;;-143.20;100.00
70758;BME280;59316;52.964;7.102;2023-05-02T01:46:05;63551.88;;;-143.20;100.00
70758;BME280;59316;52.964;7.102;2023-05-02T01:51:34;63551.88;;;-143.20;100.00
70758;BME280;59316;52.964;7.102;2023-05-02T01:57:00;63551.88;;;-143.20;100.00
70758;BME280;59316;52.964;7.102;2023-05-02T02:02:25;63551.88;;;-143.20;100.00
70758;BME280;59316;52.964;7.102;2023-05-02T02:07:47;63551.88;;;-143.20;100.00
70758;BME280;59316;52.964;7.102;2023-05-02T02:13:17;63551.88;;;-143.20;100.00
70758;BME280;59316;52.964;7.102;2023-05-02T02:18:53;63551.88;;;-143.20;100.00
70758;BME280;59316;52.964;7.102;2023-05-02T02:24:17;63551.88;;;-143.20;100.00
70758;BME280;59316;52.964;7.102;2023-05-02T02:29:40;63551.88;;;-143.20;100.00
70758;BME280;59316;52.964;7.102;2023-05-02T02:35:02;63551.88;;;-143.20;100.00
70758;BME280;59316;52.964;7.102;2023-05-02T02:40:30;101916.00;;;10.32;nan
70758;BME280;59316;52.964;7.102;2023-05-02T02:52:00;101945.88;;;9.82;nan
70758;BME280;59316;52.964;7.102;2023-05-02T02:58:03;101954.69;;;9.79;nan
70758;BME280;59316;52.964;7.102;2023-05-02T03:03:37;101962.88;;;9.70;nan
70758;BME280;59316;52.964;7.102;2023-05-02T03:08:59;101980.31;;;9.46;nan
70758;BME280;59316;52.964;7.102;2023-05-02T03:14:22;101997.94;;;9.41;nan
70758;BME280;59316;52.964;7.102;2023-05-02T03:19:44;102009.47;;;9.33;nan
70758;BME280;59316;52.964;7.102;2023-05-02T03:25:06;102017.47;;;9.29;nan
70758;BME280;59316;52.964;7.102;2023-05-02T03:30:27;102031.38;;;9.29;nan
70758;BME280;59316;52.964;7.102;2023-05-02T03:35:49;102038.31;;;9.30;nan
70758;BME280;59316;52.964;7.102;2023-05-02T03:41:11;102046.41;;;9.23;nan
70758;BME280;59316;52.964;7.102;2023-05-02T03:46:33;102050.22;;;9.12;nan
70758;BME280;59316;52.964;7.102;2023-05-02T03:51:59;102059.41;;;8.99;nan
70758;BME280;59316;52.964;7.102;2023-05-02T03:57:29;102077.34;;;9.08;nan
70758;BME280;59316;52.964;7.102;2023-05-02T04:02:51;102081.91;;;9.01;nan
70758;BME280;59316;52.964;7.102;2023-05-02T04:08:17;102083.50;;;9.05;nan
70758;BME280;59316;52.964;7.102;2023-05-02T04:13:39;102108.16;;;8.97;nan
70758;BME280;59316;52.964;7.102;2023-05-02T04:19:00;102114.19;;;8.99;nan
70758;BME280;59316;52.964;7.102;2023-05-02T04:24:22;102131.00;;;8.90;nan
70758;BME280;59316;52.964;7.102;2023-05-02T04:29:47;102130.22;;;9.13;nan
70758;BME280;59316;52.964;7.102;2023-05-02T04:35:10;102130.66;;;9.01;nan
70758;BME280;59316;52.964;7.102;2023-05-02T04:40:33;102132.50;;;8.97;nan
70758;BME280;59316;52.964;7.102;2023-05-02T04:45:58;102149.81;;;9.00;nan
70758;BME280;59316;52.964;7.102;2023-05-02T04:51:23;102165.59;;;8.95;nan
70758;BME280;59316;52.964;7.102;2023-05-02T04:56:45;102170.88;;;8.94;nan
70758;BME280;59316;52.964;7.102;2023-05-02T05:02:08;102185.16;;;9.10;nan
70758;BME280;59316;52.964;7.102;2023-05-02T05:07:29;102190.38;;;9.10;nan
70758;BME280;59316;52.964;7.102;2023-05-02T05:12:51;102203.47;;;9.09;nan
70758;BME280;59316;52.964;7.102;2023-05-02T05:18:14;102195.84;;;9.02;nan
70758;BME280;59316;52.964;7.102;2023-05-02T05:23:36;102208.44;;;9.16;nan
70758;BME280;59316;52.964;7.102;2023-05-02T05:28:59;102213.00;;;9.10;nan
70758;BME280;59316;52.964;7.102;2023-05-02T05:34:26;102223.00;;;9.24;nan
70758;BME280;59316;52.964;7.102;2023-05-02T05:39:50;102226.63;;;9.19;nan
70758;BME280;59316;52.964;7.102;2023-05-02T05:45:12;102243.88;;;9.24;nan
70758;BME280;59316;52.964;7.102;2023-05-02T05:50:35;102246.34;;;9.28;nan
70758;BME280;59316;52.964;7.102;2023-05-02T05:55:56;102263.69;;;9.31;nan
70758;BME280;59316;52.964;7.102;2023-05-02T06:01:18;102261.69;;;9.11;nan
70758;BME280;59316;52.964;7.102;2023-05-02T06:06:39;102273.00;;;9.11;nan
70758;BME280;59316;52.964;7.102;2023-05-02T06:12:01;102287.72;;;9.12;nan
70758;BME280;59316;52.964;7.102;2023-05-02T06:17:25;102282.84;;;9.01;nan
70758;BME280;59316;52.964;7.102;2023-05-02T06:22:46;102308.44;;;9.18;nan
70758;BME280;59316;52.964;7.102;2023-05-02T06:28:08;102297.50;;;9.34;nan
70758;BME280;59316;52.964;7.102;2023-05-02T06:33:30;102311.50;;;9.33;nan
70758;BME280;59316;52.964;7.102;2023-05-02T06:38:52;102313.81;;;9.42;nan
70758;BME280;59316;52.964;7.102;2023-05-02T06:44:13;102323.31;;;9.71;nan
70758;BME280;59316;52.964;7.102;2023-05-02T06:49:35;102338.81;;;9.78;nan
70758;BME280;59316;52.964;7.102;2023-05-02T06:54:56;102350.34;;;9.97;nan
70758;BME280;59316;52.964;7.102;2023-05-02T07:00:18;102366.59;;;10.32;nan
70758;BME280;59316;52.964;7.102;2023-05-02T07:05:40;102358.00;;;10.56;nan
70758;BME280;59316;52.964;7.102;2023-05-02T07:11:02;102364.84;;;10.60;nan
70758;BME280;59316;52.964;7.102;2023-05-02T07:16:23;102369.94;;;10.88;nan
70758;BME280;59316;52.964;7.102;2023-05-02T07:21:45;102365.03;;;11.02;nan
70758;BME280;59316;52.964;7.102;2023-05-02T07:27:10;102381.56;;;11.50;nan
70758;BME280;59316;52.964;7.102;2023-05-02T07:32:32;102386.06;;;11.47;nan
70758;BME280;59316;52.964;7.102;2023-05-02T07:37:53;102387.66;;;11.73;nan
70758;BME280;59316;52.964;7.102;2023-05-02T07:43:15;102391.19;;;11.72;nan
70758;BME280;59316;52.964;7.102;2023-05-02T07:48:36;102392.81;;;11.52;nan
70758;BME280;59316;52.964;7.102;2023-05-02T07:53:58;102402.47;;;11.28;nan
70758;BME280;59316;52.964;7.102;2023-05-02T07:59:19;102411.84;;;11.80;nan
70758;BME280;59316;52.964;7.102;2023-05-02T08:04:41;102416.84;;;12.08;nan
70758;BME280;59316;52.964;7.102;2023-05-02T08:10:06;102419.56;;;12.27;nan
70758;BME280;59316;52.964;7.102;2023-05-02T08:15:28;102421.19;;;12.30;nan
70758;BME280;59316;52.964;7.102;2023-05-02T08:20:50;102420.13;;;12.34;nan
70758;BME280;59316;52.964;7.102;2023-05-02T08:26:11;102428.66;;;12.19;nan
70758;BME280;59316;52.964;7.102;2023-05-02T08:31:33;102440.53;;;12.27;nan
70758;BME280;59316;52.964;7.102;2023-05-02T08:36:54;102434.03;;;11.93;nan
70758;BME280;59316;52.964;7.102;2023-05-02T08:42:18;102449.00;;;12.34;nan
70758;BME280;59316;52.964;7.102;2023-05-02T08:47:40;102450.94;;;12.92;nan
70758;BME280;59316;52.964;7.102;2023-05-02T08:53:04;102457.72;;;12.77;nan
70758;BME280;59316;52.964;7.102;2023-05-02T08:58:26;102458.25;;;13.05;nan
70758;BME280;59316;52.964;7.102;2023-05-02T09:03:47;102479.91;;;13.10;nan
70758;BME280;59316;52.964;7.102;2023-05-02T09:09:12;102484.03;;;13.36;nan
70758;BME280;59316;52.964;7.102;2023-05-02T09:14:42;102483.41;;;13.50;nan
70758;BME280;59316;52.964;7.102;2023-05-02T09:20:04;102489.50;;;13.70;nan
70758;BME280;59316;52.964;7.102;2023-05-02T09:25:35;102501.09;;;13.07;nan
70758;BME280;59316;52.964;7.102;2023-05-02T09:31:07;102494.31;;;13.22;nan
70758;BME280;59316;52.964;7.102;2023-05-02T09:36:38;102499.19;;;13.10;nan
70758;BME280;59316;52.964;7.102;2023-05-02T09:42:00;102504.28;;;13.13;nan
70758;BME280;59316;52.964;7.102;2023-05-02T09:47:25;102506.84;;;13.15;nan
70758;BME280;59316;52.964;7.102;2023-05-02T09:53:08;102508.06;;;14.05;nan
70758;BME280;59316;52.964;7.102;2023-05-02T09:58:30;102516.31;;;13.78;nan
70758;BME280;59316;52.964;7.102;2023-05-02T10:03:51;102532.63;;;13.46;nan
70758;BME280;59316;52.964;7.102;2023-05-02T10:09:14;102539.06;;;13.39;nan
70758;BME280;59316;52.964;7.102;2023-05-02T10:14:44;102547.81;;;13.40;nan
70758;BME280;59316;52.964;7.102;2023-05-02T10:20:09;102540.72;;;13.80;nan
70758;BME280;59316;52.964;7.102;2023-05-02T10:25:36;102534.00;;;14.12;nan
70758;BME280;59316;52.964;7.102;2023-05-02T10:30:59;102540.63;;;15.09;nan
70758;BME280;59316;52.964;7.102;2023-05-02T10:36:22;102533.47;;;17.46;nan
70758;BME280;59316;52.964;7.102;2023-05-02T10:41:43;102540.69;;;16.85;nan
70758;BME280;59316;52.964;7.102;2023-05-02T10:47:23;102556.63;;;15.06;nan
70758;BME280;59316;52.964;7.102;2023-05-02T10:52:45;102559.72;;;14.61;nan
70758;BME280;59316;52.964;7.102;2023-05-02T11:03:56;102573.22;;;13.39;nan
70758;BME280;59316;52.964;7.102;2023-05-02T11:14:43;102566.63;;;13.89;nan
70758;BME280;59316;52.964;7.102;2023-05-02T11:25:37;102565.50;;;15.88;nan
70758;BME280;59316;52.964;7.102;2023-05-02T11:30:59;102569.44;;;15.47;nan
70758;BME280;59316;52.964;7.102;2023-05-02T11:36:31;102572.81;;;14.26;nan
70758;BME280;59316;52.964;7.102;2023-05-02T11:41:53;102579.22;;;13.22;nan
70758;BME280;59316;52.964;7.102;2023-05-02T11:47:15;102599.75;;;13.12;nan
70758;BME280;59316;52.964;7.102;2023-05-02T11:52:41;102601.09;;;13.43;nan
70758;BME280;59316;52.964;7.102;2023-05-02T11:58:03;102607.06;;;13.06;nan
70758;BME280;59316;52.964;7.102;2023-05-02T12:03:30;102609.47;;;13.52;nan
70758;BME280;59316;52.964;7.102;2023-05-02T12:09:05;102613.00;;;13.71;nan
70758;BME280;59316;52.964;7.102;2023-05-02T12:14:31;102620.47;;;13.80;nan
70758;BME280;59316;52.964;7.102;2023-05-02T12:19:52;102618.59;;;14.22;nan
70758;BME280;59316;52.964;7.102;2023-05-02T12:25:14;102617.34;;;15.03;nan
70758;BME280;59316;52.964;7.102;2023-05-02T12:30:37;102612.03;;;15.73;nan
70758;BME280;59316;52.964;7.102;2023-05-02T12:36:05;102621.69;;;15.04;nan
70758;BME280;59316;52.964;7.102;2023-05-02T12:41:35;102618.06;;;15.24;nan
70758;BME280;59316;52.964;7.102;2023-05-02T12:46:58;102628.94;;;14.64;nan
70758;BME280;59316;52.964;7.102;2023-05-02T12:52:21;102646.88;;;13.38;nan
70758;BME280;59316;52.964;7.102;2023-05-02T12:58:10;102662.13;;;12.64;nan
70758;BME280;59316;52.964;7.102;2023-05-02T13:03:31;102651.28;;;12.94;nan
70758;BME280;59316;52.964;7.102;2023-05-02T13:08:53;102658.66;;;13.50;nan
70758;BME280;59316;52.964;7.102;2023-05-02T13:14:14;102660.84;;;13.79;nan
70758;BME280;59316;52.964;7.102;2023-05-02T13:19:36;102659.28;;;14.34;nan
70758;BME280;59316;52.964;7.102;2023-05-02T13:25:00;102662.84;;;14.52;nan
70758;BME280;59316;52.964;7.102;2023-05-02T13:30:21;102665.47;;;14.14;nan
70758;BME280;59316;52.964;7.102;2023-05-02T13:35:43;102674.81;;;14.21;nan
70758;BME280;59316;52.964;7.102;2023-05-02T13:41:04;102664.88;;;14.65;nan
70758;BME280;59316;52.964;7.102;2023-05-02T13:46:26;102686.09;;;14.23;nan
70758;BME280;59316;52.964;7.102;2023-05-02T13:51:47;102683.38;;;14.44;nan
70758;BME280;59316;52.964;7.102;2023-05-02T13:57:09;102678.72;;;14.87;nan
70758;BME280;59316;52.964;7.102;2023-05-02T14:02:30;102674.63;;;15.17;nan
70758;BME280;59316;52.964;7.102;2023-05-02T14:07:52;102679.03;;;14.62;nan
70758;BME280;59316;52.964;7.102;2023-05-02T14:13:13;102665.88;;;15.34;nan
70758;BME280;59316;52.964;7.102;2023-05-02T14:18:35;102664.84;;;15.38;nan
70758;BME280;59316;52.964;7.102;2023-05-02T14:23:56;102671.94;;;15.36;nan
70758;BME280;59316;52.964;7.102;2023-05-02T14:29:18;102682.53;;;15.87;nan
70758;BME280;59316;52.964;7.102;2023-05-02T14:34:39;102685.00;;;14.66;nan
70758;BME280;59316;52.964;7.102;2023-05-02T14:40:01;102693.63;;;14.31;nan
70758;BME280;59316;52.964;7.102;2023-05-02T14:45:23;102693.16;;;14.61;nan
70758;BME280;59316;52.964;7.102;2023-05-02T14:50:44;102689.88;;;14.56;nan
70758;BME280;59316;52.964;7.102;2023-05-02T14:56:11;102680.81;;;16.83;nan
70758;BME280;59316;52.964;7.102;2023-05-02T15:01:32;102693.00;;;14.64;nan
70758;BME280;59316;52.964;7.102;2023-05-02T15:06:54;102697.78;;;13.35;nan
70758;BME280;59316;52.964;7.102;2023-05-02T15:12:16;102698.75;;;13.32;nan
70758;BME280;59316;52.964;7.102;2023-05-02T15:17:37;102698.69;;;12.69;nan
70758;BME280;59316;52.964;7.102;2023-05-02T15:22:59;102703.28;;;12.64;nan
70758;BME280;59316;52.964;7.102;2023-05-02T15:28:20;102715.16;;;12.73;nan
70758;BME280;59316;52.964;7.102;2023-05-02T15:33:42;102716.78;;;12.77;nan
70758;BME280;59316;52.964;7.102;2023-05-02T15:39:03;102723.53;;;12.60;nan
70758;BME280;59316;52.964;7.102;2023-05-02T15:44:25;102729.44;;;12.65;nan
70758;BME280;59316;52.964;7.102;2023-05-02T15:49:46;102734.75;;;12.40;nan
70758;BME280;59316;52.964;7.102;2023-05-02T15:55:08;102729.38;;;12.67;nan
70758;BME280;59316;52.964;7.102;2023-05-02T16:00:30;102737.94;;;12.48;nan
70758;BME280;59316;52.964;7.102;2023-05-02T16:05:52;102746.28;;;12.36;nan
70758;BME280;59316;52.964;7.102;2023-05-02T16:11:14;102752.41;;;13.05;nan
70758;BME280;59316;52.964;7.102;2023-05-02T16:16:35;102734.63;;;12.67;nan
70758;BME280;59316;52.964;7.102;2023-05-02T16:21:56;102730.03;;;12.50;nan
70758;BME280;59316;52.964;7.102;2023-05-02T16:27:18;102748.50;;;12.93;nan
70758;BME280;59316;52.964;7.102;2023-05-02T16:32:40;102743.00;;;13.43;nan
70758;BME280;59316;52.964;7.102;2023-05-02T16:38:02;102736.97;;;13.83;nan
70758;BME280;59316;52.964;7.102;2023-05-02T16:43:23;102754.22;;;12.58;nan
70758;BME280;59316;52.964;7.102;2023-05-02T16:48:45;102752.38;;;12.11;nan
70758;BME280;59316;52.964;7.102;2023-05-02T16:54:06;102761.34;;;12.06;nan
70758;BME280;59316;52.964;7.102;2023-05-02T16:59:28;102762.19;;;11.81;nan
70758;BME280;59316;52.964;7.102;2023-05-02T17:04:49;102759.53;;;11.56;nan
70758;BME280;59316;52.964;7.102;2023-05-02T17:10:11;102761.25;;;11.30;nan
70758;BME280;59316;52.964;7.102;2023-05-02T17:15:35;102769.50;;;11.44;nan
70758;BME280;59316;52.964;7.102;2023-05-02T17:20:57;102787.19;;;11.38;nan
70758;BME280;59316;52.964;7.102;2023-05-02T17:26:19;102785.63;;;11.32;nan
70758;BME280;59316;52.964;7.102;2023-05-02T17:31:41;102800.16;;;11.14;nan
70758;BME280;59316;52.964;7.102;2023-05-02T17:37:02;102777.69;;;11.35;nan
70758;BME280;59316;52.964;7.102;2023-05-02T17:42:24;102784.59;;;11.38;nan
70758;BME280;59316;52.964;7.102;2023-05-02T17:47:46;102787.00;;;11.15;nan
70758;BME280;59316;52.964;7.102;2023-05-02T17:53:07;102788.38;;;11.56;nan
70758;BME280;59316;52.964;7.102;2023-05-02T17:58:29;102802.03;;;11.39;nan
70758;BME280;59316;52.964;7.102;2023-05-02T18:03:50;102825.19;;;10.94;nan
70758;BME280;59316;52.964;7.102;2023-05-02T18:09:12;102814.00;;;10.89;nan
70758;BME280;59316;52.964;7.102;2023-05-02T18:14:33;102829.97;;;10.80;nan
70758;BME280;59316;52.964;7.102;2023-05-02T18:19:55;102821.06;;;10.54;nan
70758;BME280;59316;52.964;7.102;2023-05-02T18:25:17;102830.72;;;10.19;nan
70758;BME280;59316;52.964;7.102;2023-05-02T18:30:38;102833.16;;;9.92;nan
70758;BME280;59316;52.964;7.102;2023-05-02T18:36:00;102832.84;;;9.68;nan
70758;BME280;59316;52.964;7.102;2023-05-02T18:41:22;102843.66;;;9.54;nan
70758;BME280;59316;52.964;7.102;2023-05-02T18:46:44;102850.06;;;9.40;nan
70758;BME280;59316;52.964;7.102;2023-05-02T18:52:05;102843.03;;;9.43;nan
70758;BME280;59316;52.964;7.102;2023-05-02T18:57:27;102839.69;;;9.36;nan
70758;BME280;59316;52.964;7.102;2023-05-02T19:02:52;102851.94;;;9.34;nan
70758;BME280;59316;52.964;7.102;2023-05-02T19:08:14;102845.28;;;9.19;nan
70758;BME280;59316;52.964;7.102;2023-05-02T19:13:36;102841.28;;;9.03;nan
70758;BME280;59316;52.964;7.102;2023-05-02T19:18:57;102847.28;;;8.64;nan
70758;BME280;59316;52.964;7.102;2023-05-02T19:24:19;102857.28;;;8.40;nan
70758;BME280;59316;52.964;7.102;2023-05-02T19:29:41;102863.22;;;7.96;nan
70758;BME280;59316;52.964;7.102;2023-05-02T19:35:02;102867.75;;;7.84;nan
70758;BME280;59316;52.964;7.102;2023-05-02T19:40:24;102876.84;;;7.57;nan
70758;BME280;59316;52.964;7.102;2023-05-02T19:45:45;102878.88;;;7.36;nan
70758;BME280;59316;52.964;7.102;2023-05-02T19:51:07;102884.50;;;7.02;nan
70758;BME280;59316;52.964;7.102;2023-05-02T19:56:28;102890.91;;;6.75;nan
70758;BME280;59316;52.964;7.102;2023-05-02T20:01:50;102894.50;;;6.60;nan
70758;BME280;59316;52.964;7.102;2023-05-02T20:07:11;102897.34;;;6.35;nan
70758;BME280;59316;52.964;7.102;2023-05-02T20:12:33;102898.56;;;5.96;nan
70758;BME280;59316;52.964;7.102;2023-05-02T20:17:54;102901.34;;;5.63;nan
70758;BME280;59316;52.964;7.102;2023-05-02T20:23:16;102909.97;;;5.70;nan
70758;BME280;59316;52.964;7.102;2023-05-02T20:28:37;102915.19;;;5.60;nan
70758;BME280;59316;52.964;7.102;2023-05-02T20:33:59;102924.66;;;5.71;nan
70758;BME280;59316;52.964;7.102;2023-05-02T20:39:20;102909.25;;;5.43;nan
70758;BME280;59316;52.964;7.102;2023-05-02T20:44:42;102915.47;;;5.06;nan
70758;BME280;59316;52.964;7.102;2023-05-02T20:50:04;102908.59;;;4.84;nan
70758;BME280;59316;52.964;7.102;2023-05-02T20:55:25;102919.00;;;4.70;nan
70758;BME280;59316;52.964;7.102;2023-05-02T21:00:47;102922.50;;;4.38;nan
70758;BME280;59316;52.964;7.102;2023-05-02T21:06:08;102925.97;;;4.21;nan
70758;BME280;59316;52.964;7.102;2023-05-02T21:11:30;102927.66;;;3.96;nan
70758;BME280;59316;52.964;7.102;2023-05-02T21:16:51;102928.50;;;3.79;nan
70758;BME280;59316;52.964;7.102;2023-05-02T21:22:13;102936.19;;;3.61;nan
70758;BME280;59316;52.964;7.102;2023-05-02T21:27:35;102933.56;;;3.45;nan
70758;BME280;59316;52.964;7.102;2023-05-02T21:32:56;102928.47;;;3.64;nan
70758;BME280;59316;52.964;7.102;2023-05-02T21:38:18;102932.00;;;4.12;nan
70758;BME280;59316;52.964;7.102;2023-05-02T21:43:39;102924.25;;;4.36;nan
70758;BME280;59316;52.964;7.102;2023-05-02T21:49:01;102921.63;;;4.50;nan
70758;BME280;59316;52.964;7.102;2023-05-02T21:54:22;102924.22;;;4.46;nan
70758;BME280;59316;52.964;7.102;2023-05-02T21:59:44;102919.03;;;4.64;nan
70758;BME280;59316;52.964;7.102;2023-05-02T22:05:06;102921.56;;;4.84;nan
70758;BME280;59316;52.964;7.102;2023-05-02T22:10:28;102912.88;;;5.02;nan
70758;BME280;59316;52.964;7.102;2023-05-02T22:15:50;102917.94;;;5.40;nan
70758;BME280;59316;52.964;7.102;2023-05-02T22:21:11;102917.81;;;5.59;nan
70758;BME280;59316;52.964;7.102;2023-05-02T22:26:33;102922.13;;;5.60;nan
70758;BME280;59316;52.964;7.102;2023-05-02T22:31:54;63551.88;;;-143.20;100.00
70758;BME280;59316;52.964;7.102;2023-05-02T22:37:16;63551.88;;;-143.20;100.00
70758;BME280;59316;52.964;7.102;2023-05-02T22:42:37;63551.88;;;-143.20;100.00
70758;BME280;59316;52.964;7.102;2023-05-02T22:47:58;63551.88;;;-143.20;100.00
70758;BME280;59316;52.964;7.102;2023-05-02T22:53:20;63551.88;;;-143.20;100.00
70758;BME280;59316;52.964;7.102;2023-05-02T22:58:41;102922.13;;;5.60;nan
70758;BME280;59316;52.964;7.102;2023-05-02T23:04:03;63551.88;;;-143.20;100.00
70758;BME280;59316;52.964;7.102;2023-05-02T23:09:24;63551.88;;;-143.20;100.00
70758;BME280;59316;52.964;7.102;2023-05-02T23:14:46;63551.88;;;-143.20;100.00
70758;BME280;59316;52.964;7.102;2023-05-02T23:20:09;102921.53;;;3.58;nan
70758;BME280;59316;52.964;7.102;2023-05-02T23:25:31;102927.53;;;3.43;nan
70758;BME280;59316;52.964;7.102;2023-05-02T23:30:53;63551.88;;;-143.20;100.00
70758;BME280;59316;52.964;7.102;2023-05-02T23:36:14;63551.88;;;-143.20;100.00
70758;BME280;59316;52.964;7.102;2023-05-02T23:41:35;63551.88;;;-143.20;100.00
70758;BME280;59316;52.964;7.102;2023-05-02T23:46:58;63551.88;;;-143.20;100.00
70758;BME280;59316;52.964;7.102;2023-05-02T23:52:19;63551.88;;;-143.20;100.00
70758;BME280;59316;52.964;7.102;2023-05-02T23:57:40;63551.88;;;-143.20;100.00
